sensor_id;sensor_type;location;lat;lon;timestamp;P1;durP1;ratioP1;P2;durP2;ratioP2
58581;SDS011;44361;51.476;5.700;2022-09-03T00:01:08;12.40;;;3.40;;
58581;SDS011;44361;51.476;5.700;2022-09-03T00:03:42;5.88;;;3.00;;
58581;SDS011;44361;51.476;5.700;2022-09-03T00:06:12;4.72;;;3.05;;
58581;SDS011;44361;51.476;5.700;2022-09-03T00:08:56;6.72;;;3.08;;
58581;SDS011;44361;51.476;5.700;2022-09-03T00:11:26;7.60;;;3.13;;
58581;SDS011;44361;51.476;5.700;2022-09-03T00:13:58;8.77;;;2.95;;
58581;SDS011;44361;51.476;5.700;2022-09-03T00:16:45;10.20;;;2.97;;
58581;SDS011;44361;51.476;5.700;2022-09-03T00:19:17;8.70;;;2.80;;
58581;SDS011;44361;51.476;5.700;2022-09-03T00:21:56;6.22;;;2.53;;
58581;SDS011;44361;51.476;5.700;2022-09-03T00:24:28;6.07;;;2.78;;
58581;SDS011;44361;51.476;5.700;2022-09-03T00:26:59;3.42;;;2.50;;
58581;SDS011;44361;51.476;5.700;2022-09-03T00:29:34;6.82;;;2.80;;
58581;SDS011;44361;51.476;5.700;2022-09-03T00:32:06;5.93;;;2.80;;
58581;SDS011;44361;51.476;5.700;2022-09-03T00:34:38;5.30;;;2.65;;
58581;SDS011;44361;51.476;5.700;2022-09-03T00:37:07;5.75;;;2.70;;
58581;SDS011;44361;51.476;5.700;2022-09-03T00:39:34;4.65;;;2.50;;
58581;SDS011;44361;51.476;5.700;2022-09-03T00:45:09;4.70;;;2.50;;
58581;SDS011;44361;51.476;5.700;2022-09-03T00:48:00;4.78;;;2.78;;
58581;SDS011;44361;51.476;5.700;2022-09-03T00:53:16;5.00;;;2.50;;
58581;SDS011;44361;51.476;5.700;2022-09-03T00:58:52;7.97;;;2.42;;
58581;SDS011;44361;51.476;5.700;2022-09-03T01:02:30;6.70;;;2.53;;
58581;SDS011;44361;51.476;5.700;2022-09-03T01:16:13;4.97;;;2.30;;
58581;SDS011;44361;51.476;5.700;2022-09-03T01:30:41;5.15;;;2.42;;
58581;SDS011;44361;51.476;5.700;2022-09-03T01:41:32;2.20;;;1.67;;
58581;SDS011;44361;51.476;5.700;2022-09-03T01:47:17;6.28;;;2.35;;
58581;SDS011;44361;51.476;5.700;2022-09-03T01:55:31;6.72;;;2.40;;
58581;SDS011;44361;51.476;5.700;2022-09-03T01:58:08;7.07;;;2.17;;
58581;SDS011;44361;51.476;5.700;2022-09-03T02:00:40;7.75;;;2.45;;
58581;SDS011;44361;51.476;5.700;2022-09-03T02:03:09;4.78;;;2.20;;
58581;SDS011;44361;51.476;5.700;2022-09-03T02:05:37;4.10;;;2.45;;
58581;SDS011;44361;51.476;5.700;2022-09-03T02:10:44;7.15;;;2.25;;
58581;SDS011;44361;51.476;5.700;2022-09-03T02:15:47;4.60;;;2.55;;
58581;SDS011;44361;51.476;5.700;2022-09-03T02:18:19;3.88;;;2.13;;
58581;SDS011;44361;51.476;5.700;2022-09-03T02:20:51;4.05;;;2.08;;
58581;SDS011;44361;51.476;5.700;2022-09-03T02:23:18;5.85;;;2.60;;
58581;SDS011;44361;51.476;5.700;2022-09-03T02:25:47;3.17;;;2.33;;
58581;SDS011;44361;51.476;5.700;2022-09-03T02:28:16;4.43;;;2.13;;
58581;SDS011;44361;51.476;5.700;2022-09-03T02:30:42;6.45;;;2.30;;
58581;SDS011;44361;51.476;5.700;2022-09-03T02:33:07;4.07;;;2.00;;
58581;SDS011;44361;51.476;5.700;2022-09-03T02:35:34;6.82;;;2.35;;
58581;SDS011;44361;51.476;5.700;2022-09-03T02:40:54;4.68;;;2.60;;
58581;SDS011;44361;51.476;5.700;2022-09-03T02:43:28;4.68;;;2.42;;
58581;SDS011;44361;51.476;5.700;2022-09-03T02:45:56;4.03;;;2.58;;
58581;SDS011;44361;51.476;5.700;2022-09-03T02:48:26;2.67;;;1.95;;
58581;SDS011;44361;51.476;5.700;2022-09-03T02:50:52;4.85;;;2.50;;
58581;SDS011;44361;51.476;5.700;2022-09-03T02:53:18;3.08;;;1.92;;
58581;SDS011;44361;51.476;5.700;2022-09-03T02:55:43;2.75;;;1.90;;
58581;SDS011;44361;51.476;5.700;2022-09-03T02:58:09;2.88;;;1.92;;
58581;SDS011;44361;51.476;5.700;2022-09-03T03:00:35;3.97;;;2.60;;
58581;SDS011;44361;51.476;5.700;2022-09-03T03:03:02;3.75;;;2.10;;
58581;SDS011;44361;51.476;5.700;2022-09-03T03:05:49;2.92;;;1.92;;
58581;SDS011;44361;51.476;5.700;2022-09-03T03:08:16;3.42;;;2.28;;
58581;SDS011;44361;51.476;5.700;2022-09-03T03:10:45;4.25;;;1.88;;
58581;SDS011;44361;51.476;5.700;2022-09-03T03:13:12;6.07;;;2.10;;
58581;SDS011;44361;51.476;5.700;2022-09-03T03:15:38;12.93;;;3.05;;
58581;SDS011;44361;51.476;5.700;2022-09-03T03:18:04;8.40;;;2.03;;
58581;SDS011;44361;51.476;5.700;2022-09-03T03:20:29;2.20;;;1.90;;
58581;SDS011;44361;51.476;5.700;2022-09-03T03:22:55;3.88;;;2.08;;
58581;SDS011;44361;51.476;5.700;2022-09-03T03:25:21;3.80;;;2.22;;
58581;SDS011;44361;51.476;5.700;2022-09-03T03:27:46;4.75;;;1.95;;
58581;SDS011;44361;51.476;5.700;2022-09-03T03:30:12;3.38;;;2.13;;
58581;SDS011;44361;51.476;5.700;2022-09-03T03:32:38;5.13;;;1.85;;
58581;SDS011;44361;51.476;5.700;2022-09-03T03:35:04;2.42;;;1.85;;
58581;SDS011;44361;51.476;5.700;2022-09-03T03:37:31;3.38;;;1.95;;
58581;SDS011;44361;51.476;5.700;2022-09-03T03:39:57;1.95;;;1.70;;
58581;SDS011;44361;51.476;5.700;2022-09-03T03:42:22;5.63;;;1.80;;
58581;SDS011;44361;51.476;5.700;2022-09-03T03:44:48;2.47;;;1.80;;
58581;SDS011;44361;51.476;5.700;2022-09-03T03:47:13;3.90;;;1.80;;
58581;SDS011;44361;51.476;5.700;2022-09-03T03:49:41;4.13;;;1.98;;
58581;SDS011;44361;51.476;5.700;2022-09-03T03:52:07;3.80;;;2.00;;
58581;SDS011;44361;51.476;5.700;2022-09-03T03:54:33;3.97;;;2.00;;
58581;SDS011;44361;51.476;5.700;2022-09-03T03:56:58;3.53;;;1.75;;
58581;SDS011;44361;51.476;5.700;2022-09-03T03:59:24;3.90;;;1.73;;
58581;SDS011;44361;51.476;5.700;2022-09-03T04:01:50;3.25;;;1.55;;
58581;SDS011;44361;51.476;5.700;2022-09-03T04:04:15;3.13;;;1.70;;
58581;SDS011;44361;51.476;5.700;2022-09-03T04:06:41;3.30;;;1.85;;
58581;SDS011;44361;51.476;5.700;2022-09-03T04:09:07;4.63;;;2.33;;
58581;SDS011;44361;51.476;5.700;2022-09-03T04:11:33;6.25;;;1.88;;
58581;SDS011;44361;51.476;5.700;2022-09-03T04:13:58;4.97;;;2.00;;
58581;SDS011;44361;51.476;5.700;2022-09-03T04:16:25;5.60;;;2.08;;
58581;SDS011;44361;51.476;5.700;2022-09-03T04:18:52;2.28;;;1.73;;
58581;SDS011;44361;51.476;5.700;2022-09-03T04:21:20;3.90;;;2.10;;
58581;SDS011;44361;51.476;5.700;2022-09-03T04:23:53;5.07;;;1.75;;
58581;SDS011;44361;51.476;5.700;2022-09-03T04:26:20;3.60;;;2.20;;
58581;SDS011;44361;51.476;5.700;2022-09-03T04:28:48;3.15;;;1.90;;
58581;SDS011;44361;51.476;5.700;2022-09-03T04:31:14;3.63;;;1.40;;
58581;SDS011;44361;51.476;5.700;2022-09-03T04:33:41;2.28;;;1.63;;
58581;SDS011;44361;51.476;5.700;2022-09-03T04:36:08;4.38;;;1.88;;
58581;SDS011;44361;51.476;5.700;2022-09-03T04:38:41;4.47;;;1.95;;
58581;SDS011;44361;51.476;5.700;2022-09-03T04:41:09;14.10;;;2.60;;
58581;SDS011;44361;51.476;5.700;2022-09-03T04:43:36;4.07;;;2.05;;
58581;SDS011;44361;51.476;5.700;2022-09-03T04:46:03;4.57;;;1.75;;
58581;SDS011;44361;51.476;5.700;2022-09-03T04:48:30;3.35;;;1.80;;
58581;SDS011;44361;51.476;5.700;2022-09-03T04:51:04;4.30;;;1.67;;
58581;SDS011;44361;51.476;5.700;2022-09-03T04:53:32;3.13;;;1.80;;
58581;SDS011;44361;51.476;5.700;2022-09-03T04:55:59;2.03;;;1.63;;
58581;SDS011;44361;51.476;5.700;2022-09-03T04:58:25;1.60;;;1.30;;
58581;SDS011;44361;51.476;5.700;2022-09-03T05:00:50;3.10;;;1.75;;
58581;SDS011;44361;51.476;5.700;2022-09-03T05:03:16;6.65;;;1.90;;
58581;SDS011;44361;51.476;5.700;2022-09-03T05:05:41;3.90;;;1.80;;
58581;SDS011;44361;51.476;5.700;2022-09-03T05:08:07;2.83;;;1.75;;
58581;SDS011;44361;51.476;5.700;2022-09-03T05:10:33;2.67;;;1.58;;
58581;SDS011;44361;51.476;5.700;2022-09-03T05:13:03;5.20;;;1.90;;
58581;SDS011;44361;51.476;5.700;2022-09-03T05:15:30;6.15;;;1.85;;
58581;SDS011;44361;51.476;5.700;2022-09-03T05:17:57;7.47;;;2.10;;
58581;SDS011;44361;51.476;5.700;2022-09-03T05:20:24;5.38;;;1.67;;
58581;SDS011;44361;51.476;5.700;2022-09-03T05:22:50;5.18;;;1.95;;
58581;SDS011;44361;51.476;5.700;2022-09-03T05:25:15;2.63;;;1.70;;
58581;SDS011;44361;51.476;5.700;2022-09-03T05:27:41;3.25;;;2.10;;
58581;SDS011;44361;51.476;5.700;2022-09-03T05:30:07;7.72;;;2.28;;
58581;SDS011;44361;51.476;5.700;2022-09-03T05:32:33;9.40;;;2.00;;
58581;SDS011;44361;51.476;5.700;2022-09-03T05:34:59;4.25;;;2.10;;
58581;SDS011;44361;51.476;5.700;2022-09-03T05:37:24;7.60;;;2.28;;
58581;SDS011;44361;51.476;5.700;2022-09-03T05:39:50;5.95;;;1.92;;
58581;SDS011;44361;51.476;5.700;2022-09-03T05:42:15;5.68;;;1.80;;
58581;SDS011;44361;51.476;5.700;2022-09-03T05:44:41;4.18;;;1.90;;
58581;SDS011;44361;51.476;5.700;2022-09-03T05:47:08;2.50;;;1.65;;
58581;SDS011;44361;51.476;5.700;2022-09-03T05:49:33;5.10;;;1.90;;
58581;SDS011;44361;51.476;5.700;2022-09-03T05:51:59;4.40;;;1.95;;
58581;SDS011;44361;51.476;5.700;2022-09-03T05:54:24;4.15;;;1.90;;
58581;SDS011;44361;51.476;5.700;2022-09-03T05:56:50;4.90;;;1.88;;
58581;SDS011;44361;51.476;5.700;2022-09-03T05:59:16;6.60;;;1.92;;
58581;SDS011;44361;51.476;5.700;2022-09-03T06:01:42;3.95;;;2.00;;
58581;SDS011;44361;51.476;5.700;2022-09-03T06:04:13;3.25;;;2.08;;
58581;SDS011;44361;51.476;5.700;2022-09-03T06:06:40;5.20;;;2.60;;
58581;SDS011;44361;51.476;5.700;2022-09-03T06:09:11;3.63;;;2.22;;
58581;SDS011;44361;51.476;5.700;2022-09-03T06:11:45;4.40;;;2.65;;
58581;SDS011;44361;51.476;5.700;2022-09-03T06:14:12;10.07;;;2.53;;
58581;SDS011;44361;51.476;5.700;2022-09-03T06:16:42;12.95;;;3.03;;
58581;SDS011;44361;51.476;5.700;2022-09-03T06:19:09;6.53;;;2.90;;
58581;SDS011;44361;51.476;5.700;2022-09-03T06:21:39;10.18;;;3.08;;
58581;SDS011;44361;51.476;5.700;2022-09-03T06:24:07;13.18;;;4.53;;
58581;SDS011;44361;51.476;5.700;2022-09-03T06:26:34;12.63;;;5.15;;
58581;SDS011;44361;51.476;5.700;2022-09-03T06:29:00;13.20;;;5.80;;
58581;SDS011;44361;51.476;5.700;2022-09-03T06:31:25;15.80;;;5.60;;
58581;SDS011;44361;51.476;5.700;2022-09-03T06:33:51;17.35;;;5.80;;
58581;SDS011;44361;51.476;5.700;2022-09-03T06:36:18;16.67;;;6.90;;
58581;SDS011;44361;51.476;5.700;2022-09-03T06:38:45;19.52;;;6.80;;
58581;SDS011;44361;51.476;5.700;2022-09-03T06:41:13;20.83;;;7.40;;
58581;SDS011;44361;51.476;5.700;2022-09-03T06:43:47;18.73;;;7.07;;
58581;SDS011;44361;51.476;5.700;2022-09-03T06:46:14;20.27;;;7.65;;
58581;SDS011;44361;51.476;5.700;2022-09-03T06:48:41;16.10;;;7.18;;
58581;SDS011;44361;51.476;5.700;2022-09-03T06:51:08;22.50;;;7.90;;
58581;SDS011;44361;51.476;5.700;2022-09-03T06:53:39;22.92;;;8.05;;
58581;SDS011;44361;51.476;5.700;2022-09-03T06:56:08;24.70;;;10.18;;
58581;SDS011;44361;51.476;5.700;2022-09-03T06:58:42;21.58;;;9.55;;
58581;SDS011;44361;51.476;5.700;2022-09-03T07:01:16;27.63;;;10.27;;
58581;SDS011;44361;51.476;5.700;2022-09-03T07:03:43;26.10;;;9.70;;
58581;SDS011;44361;51.476;5.700;2022-09-03T07:06:17;22.25;;;9.95;;
58581;SDS011;44361;51.476;5.700;2022-09-03T07:08:44;26.98;;;10.38;;
58581;SDS011;44361;51.476;5.700;2022-09-03T07:11:14;27.52;;;10.23;;
58581;SDS011;44361;51.476;5.700;2022-09-03T07:13:44;28.38;;;9.77;;
58581;SDS011;44361;51.476;5.700;2022-09-03T07:16:12;22.83;;;10.25;;
58581;SDS011;44361;51.476;5.700;2022-09-03T07:18:40;29.88;;;10.77;;
58581;SDS011;44361;51.476;5.700;2022-09-03T07:21:10;24.63;;;10.70;;
58581;SDS011;44361;51.476;5.700;2022-09-03T07:23:38;25.63;;;11.00;;
58581;SDS011;44361;51.476;5.700;2022-09-03T07:26:09;24.98;;;10.63;;
58581;SDS011;44361;51.476;5.700;2022-09-03T07:28:37;21.02;;;9.00;;
58581;SDS011;44361;51.476;5.700;2022-09-03T07:31:10;25.50;;;8.82;;
58581;SDS011;44361;51.476;5.700;2022-09-03T07:33:42;16.73;;;7.00;;
58581;SDS011;44361;51.476;5.700;2022-09-03T07:36:12;18.63;;;7.25;;
58581;SDS011;44361;51.476;5.700;2022-09-03T07:38:40;12.50;;;4.88;;
58581;SDS011;44361;51.476;5.700;2022-09-03T07:41:08;12.18;;;3.97;;
58581;SDS011;44361;51.476;5.700;2022-09-03T07:43:36;9.98;;;3.67;;
58581;SDS011;44361;51.476;5.700;2022-09-03T07:46:14;6.40;;;2.45;;
58581;SDS011;44361;51.476;5.700;2022-09-03T07:48:51;11.40;;;3.10;;
58581;SDS011;44361;51.476;5.700;2022-09-03T07:51:21;5.35;;;2.08;;
58581;SDS011;44361;51.476;5.700;2022-09-03T07:53:50;5.40;;;2.28;;
58581;SDS011;44361;51.476;5.700;2022-09-03T07:56:17;6.10;;;2.42;;
58581;SDS011;44361;51.476;5.700;2022-09-03T07:58:43;7.60;;;3.20;;
58581;SDS011;44361;51.476;5.700;2022-09-03T08:01:10;6.13;;;2.42;;
58581;SDS011;44361;51.476;5.700;2022-09-03T08:03:38;4.60;;;1.70;;
58581;SDS011;44361;51.476;5.700;2022-09-03T08:06:08;6.03;;;2.20;;
58581;SDS011;44361;51.476;5.700;2022-09-03T08:08:35;3.75;;;1.80;;
58581;SDS011;44361;51.476;5.700;2022-09-03T08:11:08;5.80;;;1.92;;
58581;SDS011;44361;51.476;5.700;2022-09-03T08:13:36;3.63;;;1.73;;
58581;SDS011;44361;51.476;5.700;2022-09-03T08:16:08;4.18;;;1.75;;
58581;SDS011;44361;51.476;5.700;2022-09-03T08:18:34;5.00;;;1.95;;
58581;SDS011;44361;51.476;5.700;2022-09-03T08:21:07;2.72;;;1.20;;
58581;SDS011;44361;51.476;5.700;2022-09-03T08:23:36;4.53;;;1.20;;
58581;SDS011;44361;51.476;5.700;2022-09-03T08:26:03;4.05;;;1.38;;
58581;SDS011;44361;51.476;5.700;2022-09-03T08:28:30;1.95;;;0.90;;
58581;SDS011;44361;51.476;5.700;2022-09-03T08:30:58;5.03;;;1.08;;
58581;SDS011;44361;51.476;5.700;2022-09-03T08:33:37;4.18;;;0.90;;
58581;SDS011;44361;51.476;5.700;2022-09-03T08:36:05;4.35;;;1.10;;
58581;SDS011;44361;51.476;5.700;2022-09-03T08:38:33;3.92;;;1.02;;
58581;SDS011;44361;51.476;5.700;2022-09-03T08:41:03;1.90;;;0.80;;
58581;SDS011;44361;51.476;5.700;2022-09-03T08:46:32;3.80;;;0.85;;
58581;SDS011;44361;51.476;5.700;2022-09-03T08:49:38;5.95;;;1.40;;
58581;SDS011;44361;51.476;5.700;2022-09-03T08:52:40;3.05;;;0.98;;
58581;SDS011;44361;51.476;5.700;2022-09-03T08:55:21;2.47;;;1.10;;
58581;SDS011;44361;51.476;5.700;2022-09-03T08:58:09;5.05;;;1.20;;
58581;SDS011;44361;51.476;5.700;2022-09-03T09:06:03;8.07;;;1.30;;
58581;SDS011;44361;51.476;5.700;2022-09-03T09:08:34;8.85;;;1.13;;
58581;SDS011;44361;51.476;5.700;2022-09-03T09:11:31;4.00;;;0.90;;
58581;SDS011;44361;51.476;5.700;2022-09-03T09:14:12;5.65;;;1.17;;
58581;SDS011;44361;51.476;5.700;2022-09-03T09:16:43;2.65;;;0.90;;
58581;SDS011;44361;51.476;5.700;2022-09-03T09:19:30;4.63;;;1.63;;
58581;SDS011;44361;51.476;5.700;2022-09-03T09:22:09;4.57;;;0.77;;
58581;SDS011;44361;51.476;5.700;2022-09-03T09:24:43;2.78;;;0.90;;
58581;SDS011;44361;51.476;5.700;2022-09-03T09:27:12;4.00;;;0.80;;
58581;SDS011;44361;51.476;5.700;2022-09-03T09:29:41;3.88;;;0.90;;
58581;SDS011;44361;51.476;5.700;2022-09-03T09:32:10;8.68;;;0.90;;
58581;SDS011;44361;51.476;5.700;2022-09-03T09:34:39;3.03;;;1.10;;
58581;SDS011;44361;51.476;5.700;2022-09-03T09:37:11;1.35;;;0.80;;
58581;SDS011;44361;51.476;5.700;2022-09-03T09:39:40;7.15;;;1.42;;
58581;SDS011;44361;51.476;5.700;2022-09-03T09:42:19;5.57;;;0.90;;
58581;SDS011;44361;51.476;5.700;2022-09-03T09:44:45;6.40;;;2.00;;
58581;SDS011;44361;51.476;5.700;2022-09-03T09:47:12;4.05;;;0.90;;
58581;SDS011;44361;51.476;5.700;2022-09-03T09:49:56;7.68;;;1.10;;
58581;SDS011;44361;51.476;5.700;2022-09-03T09:52:24;2.97;;;1.00;;
58581;SDS011;44361;51.476;5.700;2022-09-03T09:54:53;2.65;;;0.82;;
58581;SDS011;44361;51.476;5.700;2022-09-03T09:57:35;1.60;;;1.00;;
58581;SDS011;44361;51.476;5.700;2022-09-03T10:00:12;5.95;;;1.73;;
58581;SDS011;44361;51.476;5.700;2022-09-03T10:02:46;11.02;;;2.88;;
58581;SDS011;44361;51.476;5.700;2022-09-03T10:05:28;7.10;;;3.17;;
58581;SDS011;44361;51.476;5.700;2022-09-03T10:08:01;8.60;;;4.25;;
58581;SDS011;44361;51.476;5.700;2022-09-03T10:10:29;9.75;;;4.57;;
58581;SDS011;44361;51.476;5.700;2022-09-03T10:26:23;5.63;;;1.58;;
58581;SDS011;44361;51.476;5.700;2022-09-03T10:28:56;6.35;;;2.53;;
58581;SDS011;44361;51.476;5.700;2022-09-03T10:47:58;12.85;;;4.75;;
58581;SDS011;44361;51.476;5.700;2022-09-03T10:56:01;8.15;;;2.80;;
58581;SDS011;44361;51.476;5.700;2022-09-03T11:06:51;6.55;;;2.92;;
58581;SDS011;44361;51.476;5.700;2022-09-03T11:09:26;16.58;;;7.55;;
58581;SDS011;44361;51.476;5.700;2022-09-03T11:12:15;15.95;;;6.75;;
58581;SDS011;44361;51.476;5.700;2022-09-03T11:14:52;16.77;;;6.15;;
58581;SDS011;44361;51.476;5.700;2022-09-03T11:17:31;12.52;;;5.45;;
58581;SDS011;44361;51.476;5.700;2022-09-03T11:20:13;15.13;;;5.05;;
58581;SDS011;44361;51.476;5.700;2022-09-03T11:22:46;10.30;;;4.80;;
58581;SDS011;44361;51.476;5.700;2022-09-03T11:25:14;7.85;;;2.10;;
58581;SDS011;44361;51.476;5.700;2022-09-03T11:30:11;4.15;;;1.60;;
58581;SDS011;44361;51.476;5.700;2022-09-03T11:32:40;2.83;;;1.55;;
58581;SDS011;44361;51.476;5.700;2022-09-03T11:35:15;4.75;;;1.30;;
58581;SDS011;44361;51.476;5.700;2022-09-03T11:38:02;3.22;;;1.73;;
58581;SDS011;44361;51.476;5.700;2022-09-03T11:41:03;3.58;;;2.00;;
58581;SDS011;44361;51.476;5.700;2022-09-03T11:43:41;5.32;;;2.10;;
58581;SDS011;44361;51.476;5.700;2022-09-03T11:48:46;3.25;;;1.92;;
58581;SDS011;44361;51.476;5.700;2022-09-03T11:51:27;4.97;;;2.13;;
58581;SDS011;44361;51.476;5.700;2022-09-03T11:56:38;5.68;;;1.98;;
58581;SDS011;44361;51.476;5.700;2022-09-03T12:01:37;4.50;;;1.83;;
58581;SDS011;44361;51.476;5.700;2022-09-03T12:04:09;11.63;;;2.03;;
58581;SDS011;44361;51.476;5.700;2022-09-03T12:18:21;8.13;;;4.03;;
58581;SDS011;44361;51.476;5.700;2022-09-03T12:23:33;7.88;;;3.78;;
58581;SDS011;44361;51.476;5.700;2022-09-03T12:26:16;11.77;;;3.63;;
58581;SDS011;44361;51.476;5.700;2022-09-03T12:28:45;4.53;;;2.70;;
58581;SDS011;44361;51.476;5.700;2022-09-03T12:31:15;7.95;;;3.35;;
58581;SDS011;44361;51.476;5.700;2022-09-03T12:33:49;4.15;;;2.30;;
58581;SDS011;44361;51.476;5.700;2022-09-03T12:36:20;5.65;;;2.40;;
58581;SDS011;44361;51.476;5.700;2022-09-03T12:38:46;8.10;;;3.25;;
58581;SDS011;44361;51.476;5.700;2022-09-03T12:41:23;7.55;;;3.25;;
58581;SDS011;44361;51.476;5.700;2022-09-03T12:43:55;6.10;;;2.50;;
58581;SDS011;44361;51.476;5.700;2022-09-03T12:46:23;10.00;;;3.17;;
58581;SDS011;44361;51.476;5.700;2022-09-03T12:48:58;6.53;;;3.10;;
58581;SDS011;44361;51.476;5.700;2022-09-03T12:51:37;9.55;;;3.10;;
58581;SDS011;44361;51.476;5.700;2022-09-03T12:54:04;4.88;;;2.63;;
58581;SDS011;44361;51.476;5.700;2022-09-03T12:56:33;7.35;;;3.00;;
58581;SDS011;44361;51.476;5.700;2022-09-03T12:59:05;5.75;;;3.00;;
58581;SDS011;44361;51.476;5.700;2022-09-03T13:01:46;5.88;;;2.67;;
58581;SDS011;44361;51.476;5.700;2022-09-03T13:04:16;5.55;;;2.70;;
58581;SDS011;44361;51.476;5.700;2022-09-03T13:09:32;7.50;;;2.80;;
58581;SDS011;44361;51.476;5.700;2022-09-03T13:12:00;3.88;;;1.67;;
58581;SDS011;44361;51.476;5.700;2022-09-03T13:14:40;6.32;;;3.17;;
58581;SDS011;44361;51.476;5.700;2022-09-03T13:19:57;4.18;;;1.70;;
58581;SDS011;44361;51.476;5.700;2022-09-03T13:31:42;4.38;;;1.65;;
58581;SDS011;44361;51.476;5.700;2022-09-03T13:34:15;4.40;;;1.40;;
58581;SDS011;44361;51.476;5.700;2022-09-03T13:40:22;4.53;;;1.80;;
58581;SDS011;44361;51.476;5.700;2022-09-03T13:43:41;3.08;;;1.50;;
58581;SDS011;44361;51.476;5.700;2022-09-03T13:45:45;2.83;;;1.60;;
58581;SDS011;44361;51.476;5.700;2022-09-03T13:48:20;4.10;;;1.40;;
58581;SDS011;44361;51.476;5.700;2022-09-03T13:53:58;1.40;;;1.25;;
58581;SDS011;44361;51.476;5.700;2022-09-03T13:56:43;2.15;;;1.38;;
58581;SDS011;44361;51.476;5.700;2022-09-03T14:07:14;3.20;;;1.75;;
58581;SDS011;44361;51.476;5.700;2022-09-03T14:12:34;3.10;;;1.55;;
58581;SDS011;44361;51.476;5.700;2022-09-03T14:15:18;4.38;;;1.63;;
58581;SDS011;44361;51.476;5.700;2022-09-03T14:18:11;6.07;;;1.30;;
58581;SDS011;44361;51.476;5.700;2022-09-03T14:20:57;2.75;;;1.20;;
58581;SDS011;44361;51.476;5.700;2022-09-03T14:23:41;2.05;;;1.30;;
58581;SDS011;44361;51.476;5.700;2022-09-03T14:26:14;3.65;;;1.70;;
58581;SDS011;44361;51.476;5.700;2022-09-03T14:31:55;4.22;;;1.65;;
58581;SDS011;44361;51.476;5.700;2022-09-03T14:48:42;4.47;;;1.23;;
58581;SDS011;44361;51.476;5.700;2022-09-03T14:54:54;5.57;;;1.40;;
58581;SDS011;44361;51.476;5.700;2022-09-03T14:57:19;1.70;;;1.30;;
58581;SDS011;44361;51.476;5.700;2022-09-03T15:02:40;4.65;;;1.70;;
58581;SDS011;44361;51.476;5.700;2022-09-03T15:08:07;4.85;;;1.80;;
58581;SDS011;44361;51.476;5.700;2022-09-03T15:11:04;3.85;;;1.73;;
58581;SDS011;44361;51.476;5.700;2022-09-03T15:16:42;3.85;;;1.85;;
58581;SDS011;44361;51.476;5.700;2022-09-03T15:30:17;3.15;;;1.50;;
58581;SDS011;44361;51.476;5.700;2022-09-03T15:41:33;2.00;;;1.52;;
58581;SDS011;44361;51.476;5.700;2022-09-03T15:44:20;3.47;;;1.33;;
58581;SDS011;44361;51.476;5.700;2022-09-03T15:46:49;2.95;;;1.40;;
58581;SDS011;44361;51.476;5.700;2022-09-03T15:49:57;1.88;;;1.48;;
58581;SDS011;44361;51.476;5.700;2022-09-03T15:52:30;1.92;;;1.45;;
58581;SDS011;44361;51.476;5.700;2022-09-03T15:55:10;2.65;;;1.70;;
58581;SDS011;44361;51.476;5.700;2022-09-03T15:57:50;3.72;;;1.38;;
58581;SDS011;44361;51.476;5.700;2022-09-03T16:00:30;3.10;;;1.48;;
58581;SDS011;44361;51.476;5.700;2022-09-03T16:03:00;3.17;;;1.73;;
58581;SDS011;44361;51.476;5.700;2022-09-03T16:05:40;2.95;;;1.70;;
58581;SDS011;44361;51.476;5.700;2022-09-03T16:15:57;8.13;;;1.77;;
58581;SDS011;44361;51.476;5.700;2022-09-03T16:18:29;2.28;;;1.55;;
58581;SDS011;44361;51.476;5.700;2022-09-03T16:21:08;4.55;;;1.60;;
58581;SDS011;44361;51.476;5.700;2022-09-03T16:26:13;4.88;;;2.00;;
58581;SDS011;44361;51.476;5.700;2022-09-03T16:28:51;1.98;;;1.40;;
58581;SDS011;44361;51.476;5.700;2022-09-03T16:47:51;1.65;;;1.40;;
58581;SDS011;44361;51.476;5.700;2022-09-03T16:55:55;7.22;;;2.20;;
58581;SDS011;44361;51.476;5.700;2022-09-03T16:58:57;2.05;;;1.48;;
58581;SDS011;44361;51.476;5.700;2022-09-03T17:04:34;2.10;;;1.40;;
58581;SDS011;44361;51.476;5.700;2022-09-03T17:07:39;3.60;;;1.60;;
58581;SDS011;44361;51.476;5.700;2022-09-03T17:16:31;7.95;;;1.73;;
58581;SDS011;44361;51.476;5.700;2022-09-03T17:24:35;2.95;;;1.73;;
58581;SDS011;44361;51.476;5.700;2022-09-03T17:27:37;3.55;;;1.80;;
58581;SDS011;44361;51.476;5.700;2022-09-03T17:30:20;3.97;;;1.65;;
58581;SDS011;44361;51.476;5.700;2022-09-03T17:47:01;2.80;;;1.80;;
58581;SDS011;44361;51.476;5.700;2022-09-03T17:49:49;2.30;;;1.73;;
58581;SDS011;44361;51.476;5.700;2022-09-03T17:52:29;2.17;;;1.67;;
58581;SDS011;44361;51.476;5.700;2022-09-03T17:58:11;3.97;;;1.97;;
58581;SDS011;44361;51.476;5.700;2022-09-03T18:00:43;2.78;;;1.73;;
58581;SDS011;44361;51.476;5.700;2022-09-03T18:05:57;2.72;;;2.00;;
58581;SDS011;44361;51.476;5.700;2022-09-03T18:09:02;2.85;;;2.20;;
58581;SDS011;44361;51.476;5.700;2022-09-03T18:11:38;5.22;;;1.77;;
58581;SDS011;44361;51.476;5.700;2022-09-03T18:14:25;4.90;;;2.10;;
58581;SDS011;44361;51.476;5.700;2022-09-03T18:19:45;3.70;;;2.10;;
58581;SDS011;44361;51.476;5.700;2022-09-03T18:23:17;2.60;;;2.20;;
58581;SDS011;44361;51.476;5.700;2022-09-03T18:25:46;6.95;;;1.98;;
58581;SDS011;44361;51.476;5.700;2022-09-03T18:28:38;4.20;;;2.15;;
58581;SDS011;44361;51.476;5.700;2022-09-03T18:31:29;7.35;;;2.00;;
58581;SDS011;44361;51.476;5.700;2022-09-03T18:34:13;4.82;;;2.28;;
58581;SDS011;44361;51.476;5.700;2022-09-03T18:36:57;2.30;;;2.10;;
58581;SDS011;44361;51.476;5.700;2022-09-03T18:39:45;4.65;;;2.13;;
58581;SDS011;44361;51.476;5.700;2022-09-03T18:42:38;5.35;;;2.35;;
58581;SDS011;44361;51.476;5.700;2022-09-03T18:45:50;5.60;;;2.50;;
58581;SDS011;44361;51.476;5.700;2022-09-03T18:48:55;4.05;;;2.05;;
58581;SDS011;44361;51.476;5.700;2022-09-03T18:51:55;4.20;;;2.20;;
58581;SDS011;44361;51.476;5.700;2022-09-03T19:07:08;5.75;;;2.65;;
58581;SDS011;44361;51.476;5.700;2022-09-03T19:19:19;3.40;;;2.42;;
58581;SDS011;44361;51.476;5.700;2022-09-03T19:22:30;7.82;;;3.15;;
58581;SDS011;44361;51.476;5.700;2022-09-03T19:25:20;6.40;;;3.83;;
58581;SDS011;44361;51.476;5.700;2022-09-03T19:30:56;10.73;;;5.07;;
58581;SDS011;44361;51.476;5.700;2022-09-03T19:34:01;10.85;;;5.88;;
58581;SDS011;44361;51.476;5.700;2022-09-03T19:37:24;8.60;;;5.03;;
58581;SDS011;44361;51.476;5.700;2022-09-03T19:40:36;8.35;;;5.05;;
58581;SDS011;44361;51.476;5.700;2022-09-03T19:46:42;12.15;;;7.25;;
58581;SDS011;44361;51.476;5.700;2022-09-03T19:55:25;15.57;;;9.23;;
58581;SDS011;44361;51.476;5.700;2022-09-03T19:58:13;27.05;;;12.13;;
58581;SDS011;44361;51.476;5.700;2022-09-03T20:01:01;14.95;;;7.80;;
58581;SDS011;44361;51.476;5.700;2022-09-03T20:03:45;6.60;;;4.75;;
58581;SDS011;44361;51.476;5.700;2022-09-03T20:06:30;7.93;;;4.63;;
58581;SDS011;44361;51.476;5.700;2022-09-03T20:09:17;12.18;;;5.75;;
58581;SDS011;44361;51.476;5.700;2022-09-03T20:12:05;15.32;;;5.32;;
58581;SDS011;44361;51.476;5.700;2022-09-03T20:14:32;8.80;;;5.68;;
58581;SDS011;44361;51.476;5.700;2022-09-03T20:22:30;8.95;;;5.45;;
58581;SDS011;44361;51.476;5.700;2022-09-03T20:28:34;13.35;;;5.97;;
58581;SDS011;44361;51.476;5.700;2022-09-03T20:31:08;8.65;;;5.43;;
58581;SDS011;44361;51.476;5.700;2022-09-03T20:36:28;9.82;;;6.45;;
58581;SDS011;44361;51.476;5.700;2022-09-03T20:42:28;14.38;;;8.30;;
58581;SDS011;44361;51.476;5.700;2022-09-03T20:45:04;10.85;;;6.30;;
58581;SDS011;44361;51.476;5.700;2022-09-03T20:47:43;10.45;;;6.25;;
58581;SDS011;44361;51.476;5.700;2022-09-03T20:50:21;12.60;;;6.47;;
58581;SDS011;44361;51.476;5.700;2022-09-03T20:55:46;7.03;;;5.20;;
58581;SDS011;44361;51.476;5.700;2022-09-03T20:58:37;7.32;;;5.15;;
58581;SDS011;44361;51.476;5.700;2022-09-03T21:01:22;8.70;;;5.15;;
58581;SDS011;44361;51.476;5.700;2022-09-03T21:05:02;10.32;;;4.65;;